首页
METAR-TAF:

METAR-TAF

机场 :

Sligo, 爱尔兰

纬度: 54-16-49N, 经度: 8-35-57W, 海拔: 3米

当前天气观测

该预报发布于35分钟前的16:00 UTC
风速4节,风向南转南东,在西南之间变化
温度 13°C
湿度 58%
气压 999 hPa
能见度10公里或以上
1500米以下无云,无积雨云

METAR: EISG 231600Z 16004KT 100V220 CAVOK 13/05 Q0999

时间: 17:35 (16:35 UTC)

预报

该预报发布于2小时和35分钟前的14:00 UTC
预报有效从23日的 15点(UTC)到 23日的 24点(UTC)
风速3节,风向多变
能见度10公里或以上
少量云层高于1500英尺
短暂存在
从 23日的 15点(UTC)到 23日的 18点(UTC)
风速10节,风向西
散云层高于2000英尺, 积雨云.
小阵雨
几率 30% :
短暂存在
从 23日的 15点(UTC)到 23日的 18点(UTC)
能見度: 4000
多云层高于1000英尺
阵雨
成为
从 23日的 17点(UTC)到 23日的 19点(UTC)
风速8节,风向东转东南

TAF: EISG 231400Z 2315/2324 VRB03KT 9999 FEW015 TEMPO 2315/2318 26010KT -SHRA SCT020CB PROB30 TEMPO 2315/2318 4000 SHRA BKN010 BECMG 2317/2319 12008KT

超过4000个机场的气象观测和天气预报(METAR&TAF报告)。

可查询的气象台以黄色和红色小点在地图上表示。

将鼠标移到小点上方,可查看气象台名称。

然后点击查看天气观测和预报。

如需切换地图:点击带黑十字的绿色按钮放大地图;点击带横线的绿色按钮缩小地图;或者点击绿色箭头查看邻近地区的地图。


METAR-TAF: